Time;durP1;ratioP1;P1;durP2;ratioP2;P2;SDS_P1;SDS_P2;PMS_P1;PMS_P2;Temp;Humidity;BMP_temperature;BMP_pressure;BME280_temperature;BME280_humidity;BME280_pressure;Samples;Min_cycle;Max_cycle;Signal;HPM_P1;HPM_P2
2022/03/03 00:02:03;;;;;;;48.50;28.83;;;;;;;;;;5035641;28;20253;-68
2022/03/03 00:04:29;;;;;;;50.47;30.93;;;;;;;;;;5035464;28;20042;-69
2022/03/03 00:06:56;;;;;;;52.80;32.10;;;;;;;;;;5035430;28;20038;-68
2022/03/03 00:09:22;;;;;;;44.40;28.03;;;;;;;;;;5035692;28;20097;-68
2022/03/03 00:11:48;;;;;;;43.57;26.90;;;;;;;;;;5035235;28;20479;-68
2022/03/03 00:14:14;;;;;;;46.33;27.80;;;;;;;;;;5035522;28;20041;-68
2022/03/03 00:16:41;;;;;;;43.77;26.20;;;;;;;;;;5035430;28;20065;-69
2022/03/03 00:19:07;;;;;;;44.40;28.00;;;;;;;;;;5035821;28;20034;-68
2022/03/03 00:21:34;;;;;;;42.73;25.57;;;;;;;;;;5035467;28;20076;-68
2022/03/03 00:24:00;;;;;;;38.50;25.20;;;;;;;;;;5035386;28;20042;-68
2022/03/03 00:26:26;;;;;;;40.17;24.93;;;;;;;;;;5035394;28;20433;-68
2022/03/03 00:28:52;;;;;;;40.47;25.47;;;;;;;;;;5034935;28;20055;-68
2022/03/03 00:31:18;;;;;;;38.83;24.33;;;;;;;;;;5035254;28;20105;-68
2022/03/03 00:33:45;;;;;;;43.93;26.70;;;;;;;;;;5035561;28;20044;-68
2022/03/03 00:36:11;;;;;;;41.53;26.17;;;;;;;;;;5035386;28;20041;-69
2022/03/03 00:38:37;;;;;;;47.57;27.83;;;;;;;;;;5035012;28;20053;-69
2022/03/03 00:41:03;;;;;;;38.53;26.23;;;;;;;;;;5034944;28;20045;-69
2022/03/03 00:43:29;;;;;;;40.73;25.53;;;;;;;;;;5035048;28;20101;-68
2022/03/03 00:45:55;;;;;;;43.03;26.03;;;;;;;;;;5034932;28;20036;-68
2022/03/03 00:48:21;;;;;;;42.40;25.70;;;;;;;;;;5034857;28;20029;-68
2022/03/03 00:50:48;;;;;;;39.83;23.77;;;;;;;;;;5034722;28;20213;-68
2022/03/03 00:53:14;;;;;;;35.70;24.03;;;;;;;;;;5034834;28;20040;-68
2022/03/03 00:55:40;;;;;;;42.10;25.47;;;;;;;;;;5034694;28;20033;-68
2022/03/03 00:58:06;;;;;;;35.50;24.83;;;;;;;;;;5034600;28;20132;-68
2022/03/03 01:00:32;;;;;;;41.50;26.03;;;;;;;;;;5034554;28;20567;-68
2022/03/03 01:02:58;;;;;;;38.37;25.00;;;;;;;;;;5034839;28;20040;-68
2022/03/03 01:05:24;;;;;;;43.63;27.23;;;;;;;;;;5034590;28;20037;-68
2022/03/03 01:07:50;;;;;;;39.43;25.07;;;;;;;;;;5034645;28;20117;-68
2022/03/03 01:10:16;;;;;;;38.77;24.47;;;;;;;;;;5034394;28;20040;-68
2022/03/03 01:12:42;;;;;;;42.33;24.30;;;;;;;;;;5034095;28;20055;-68
2022/03/03 01:15:09;;;;;;;37.73;24.27;;;;;;;;;;5034359;28;20037;-68
2022/03/03 01:17:36;;;;;;;36.77;24.10;;;;;;;;;;5034367;28;20120;-68
2022/03/03 01:20:02;;;;;;;37.03;25.10;;;;;;;;;;5034072;28;20037;-69
2022/03/03 01:22:28;;;;;;;34.80;24.40;;;;;;;;;;5034420;28;20037;-68
2022/03/03 01:24:54;;;;;;;38.70;25.60;;;;;;;;;;5034130;28;20030;-69
2022/03/03 01:27:20;;;;;;;42.83;26.57;;;;;;;;;;5034065;28;20489;-69
2022/03/03 01:29:46;;;;;;;36.07;25.67;;;;;;;;;;5034054;28;20087;-68
2022/03/03 01:32:12;;;;;;;37.27;26.37;;;;;;;;;;5034128;28;20038;-68
2022/03/03 01:34:39;;;;;;;41.97;25.70;;;;;;;;;;5033887;28;20029;-68
2022/03/03 01:37:05;;;;;;;43.73;26.30;;;;;;;;;;5033860;28;20042;-68
2022/03/03 01:45:38;;;;;;;43.80;25.55;;;;;;;;;;5034361;28;20107;-68
2022/03/03 01:48:04;;;;;;;45.53;24.83;;;;;;;;;;5033610;28;20033;-69
2022/03/03 01:50:31;;;;;;;39.17;25.53;;;;;;;;;;5034121;28;20064;-68
2022/03/03 01:52:57;;;;;;;41.87;25.40;;;;;;;;;;5033091;28;20478;-69
2022/03/03 01:55:23;;;;;;;38.17;25.47;;;;;;;;;;5033582;28;20034;-68
2022/03/03 01:57:50;;;;;;;37.47;24.97;;;;;;;;;;5032372;28;20069;-68
2022/03/03 02:00:16;;;;;;;43.40;26.10;;;;;;;;;;5030420;28;20134;-69
2022/03/03 02:02:42;;;;;;;41.77;26.20;;;;;;;;;;5030692;28;20375;-68
2022/03/03 02:05:08;;;;;;;43.33;26.50;;;;;;;;;;5032100;28;20046;-68
2022/03/03 02:07:35;;;;;;;42.13;25.57;;;;;;;;;;5033229;28;20040;-68
2022/03/03 02:10:02;;;;;;;38.40;24.70;;;;;;;;;;5033320;28;20498;-69
2022/03/03 02:12:28;;;;;;;37.63;25.00;;;;;;;;;;5033130;28;20045;-68
2022/03/03 02:14:54;;;;;;;42.13;24.87;;;;;;;;;;5032882;28;20050;-68
2022/03/03 02:17:20;;;;;;;36.70;25.43;;;;;;;;;;5033209;28;20029;-68
2022/03/03 02:19:47;;;;;;;38.23;24.40;;;;;;;;;;5032940;28;20033;-68
2022/03/03 02:22:13;;;;;;;40.17;22.70;;;;;;;;;;5032945;28;20073;-67
2022/03/03 02:24:39;;;;;;;37.07;23.90;;;;;;;;;;5033183;28;20038;-68
2022/03/03 02:27:06;;;;;;;40.70;23.90;;;;;;;;;;5033110;28;20088;-68
2022/03/03 02:29:33;;;;;;;34.83;23.20;;;;;;;;;;5032905;28;20485;-68
2022/03/03 02:32:00;;;;;;;34.83;22.80;;;;;;;;;;5032970;28;20536;-68
2022/03/03 02:34:26;;;;;;;41.50;23.13;;;;;;;;;;5032525;28;20508;-68
2022/03/03 02:36:52;;;;;;;32.10;22.37;;;;;;;;;;5032577;28;20398;-68
2022/03/03 02:39:18;;;;;;;35.67;23.50;;;;;;;;;;5032788;28;20036;-68
2022/03/03 02:41:44;;;;;;;35.93;21.77;;;;;;;;;;5032827;28;20480;-68
2022/03/03 02:44:10;;;;;;;34.50;21.93;;;;;;;;;;5032473;28;20398;-68
2022/03/03 02:46:36;;;;;;;33.83;21.30;;;;;;;;;;5032706;28;20461;-68
2022/03/03 02:49:02;;;;;;;33.07;21.97;;;;;;;;;;5033031;28;20037;-68
2022/03/03 02:51:28;;;;;;;34.50;22.07;;;;;;;;;;5032893;28;20038;-68
2022/03/03 02:53:54;;;;;;;36.10;22.23;;;;;;;;;;5032801;28;20032;-68
2022/03/03 02:56:20;;;;;;;37.20;22.90;;;;;;;;;;5032371;28;20405;-69
2022/03/03 02:58:47;;;;;;;34.33;23.30;;;;;;;;;;5032444;28;20414;-68
2022/03/03 03:01:13;;;;;;;36.27;22.30;;;;;;;;;;5032654;28;20107;-69
2022/03/03 03:03:39;;;;;;;37.40;22.93;;;;;;;;;;5035343;28;20038;-68
2022/03/03 03:06:06;;;;;;;38.70;22.37;;;;;;;;;;5036743;28;20445;-68
2022/03/03 03:08:33;;;;;;;32.97;22.13;;;;;;;;;;5036438;28;20030;-69
2022/03/03 03:10:59;;;;;;;35.27;21.63;;;;;;;;;;5037087;28;20437;-68
2022/03/03 03:13:25;;;;;;;35.60;22.90;;;;;;;;;;5036262;28;20041;-68
2022/03/03 03:15:51;;;;;;;35.90;23.20;;;;;;;;;;5036521;28;20041;-68
2022/03/03 03:18:19;;;;;;;35.97;21.10;;;;;;;;;;5036490;28;20063;-69
2022/03/03 03:20:46;;;;;;;34.17;23.03;;;;;;;;;;5036588;28;20044;-68
2022/03/03 03:23:13;;;;;;;34.90;23.27;;;;;;;;;;5036414;28;20040;-68
2022/03/03 03:25:45;;;;;;;32.90;21.83;;;;;;;;;;5036354;28;20073;-68
2022/03/03 03:28:12;;;;;;;32.15;21.85;;;;;;;;;;5036378;28;20080;-68
2022/03/03 03:30:38;;;;;;;32.33;20.77;;;;;;;;;;5036378;28;20134;-70
2022/03/03 03:33:05;;;;;;;31.33;20.20;;;;;;;;;;5036346;28;20037;-70
2022/03/03 03:35:31;;;;;;;32.03;20.63;;;;;;;;;;5036394;28;20063;-70
2022/03/03 03:37:57;;;;;;;27.97;18.57;;;;;;;;;;5035940;28;20037;-69
2022/03/03 03:40:23;;;;;;;29.47;18.40;;;;;;;;;;5036035;28;20045;-70
2022/03/03 03:42:49;;;;;;;28.27;18.60;;;;;;;;;;5035660;28;20040;-68
2022/03/03 03:45:16;;;;;;;29.07;18.90;;;;;;;;;;5035893;28;20034;-68
2022/03/03 03:47:43;;;;;;;27.63;16.90;;;;;;;;;;5035873;28;20025;-68
2022/03/03 03:50:10;;;;;;;25.27;17.53;;;;;;;;;;5035765;28;20044;-68
2022/03/03 03:52:36;;;;;;;28.83;18.83;;;;;;;;;;5035947;28;20065;-68
2022/03/03 03:55:03;;;;;;;29.80;19.17;;;;;;;;;;5035978;28;20030;-68
2022/03/03 03:57:29;;;;;;;33.80;18.40;;;;;;;;;;5035846;28;20041;-68
2022/03/03 03:59:55;;;;;;;38.93;20.70;;;;;;;;;;5035601;28;20096;-68
2022/03/03 04:02:21;;;;;;;30.73;19.23;;;;;;;;;;5035706;28;20108;-68
2022/03/03 04:04:47;;;;;;;33.00;21.13;;;;;;;;;;5035529;28;20061;-68
2022/03/03 04:07:13;;;;;;;32.30;20.33;;;;;;;;;;5035809;28;20087;-68
2022/03/03 04:09:39;;;;;;;37.60;20.30;;;;;;;;;;5035805;28;20414;-68
2022/03/03 04:12:06;;;;;;;34.07;20.50;;;;;;;;;;5035530;28;20048;-68
2022/03/03 04:14:32;;;;;;;27.37;18.87;;;;;;;;;;5034944;28;20033;-69
2022/03/03 04:16:58;;;;;;;35.50;21.13;;;;;;;;;;5035614;28;20116;-68
2022/03/03 04:19:24;;;;;;;39.77;21.10;;;;;;;;;;5035520;28;20037;-68
2022/03/03 04:21:50;;;;;;;35.97;20.73;;;;;;;;;;5035352;28;20128;-69
2022/03/03 04:24:16;;;;;;;40.30;21.33;;;;;;;;;;5035475;28;20029;-68
2022/03/03 04:26:42;;;;;;;36.87;20.60;;;;;;;;;;5035771;28;20036;-69
2022/03/03 04:29:09;;;;;;;39.27;20.23;;;;;;;;;;5036230;28;20036;-68
2022/03/03 04:31:35;;;;;;;42.10;21.80;;;;;;;;;;5035227;28;20033;-68
2022/03/03 04:34:01;;;;;;;35.27;20.33;;;;;;;;;;5035073;28;20037;-68
2022/03/03 04:36:27;;;;;;;41.80;20.27;;;;;;;;;;5034889;28;20061;-69
2022/03/03 04:38:53;;;;;;;36.87;20.07;;;;;;;;;;5034960;28;20033;-68
2022/03/03 04:41:20;;;;;;;29.57;19.90;;;;;;;;;;5034728;28;20139;-75
2022/03/03 04:43:46;;;;;;;35.10;19.77;;;;;;;;;;5035113;28;20065;-68
2022/03/03 04:46:12;;;;;;;34.23;19.63;;;;;;;;;;5034938;28;20478;-68
2022/03/03 04:48:38;;;;;;;33.90;19.10;;;;;;;;;;5035132;28;20100;-74
2022/03/03 04:51:05;;;;;;;41.10;20.33;;;;;;;;;;5034926;28;20061;-68
2022/03/03 04:53:31;;;;;;;36.37;20.37;;;;;;;;;;5034885;28;20108;-75
2022/03/03 04:55:58;;;;;;;32.67;19.83;;;;;;;;;;5034751;28;20021;-75
2022/03/03 04:58:24;;;;;;;30.87;19.10;;;;;;;;;;5034757;28;20055;-68
2022/03/03 05:00:51;;;;;;;30.83;19.40;;;;;;;;;;5034613;28;20048;-69
2022/03/03 05:03:17;;;;;;;35.10;19.53;;;;;;;;;;5034638;28;20030;-68
2022/03/03 05:05:43;;;;;;;31.13;18.67;;;;;;;;;;5034686;28;20389;-69
2022/03/03 05:08:09;;;;;;;32.87;19.93;;;;;;;;;;5034623;28;20033;-68
2022/03/03 05:10:35;;;;;;;33.30;20.47;;;;;;;;;;5034376;28;20549;-69
2022/03/03 05:13:01;;;;;;;30.20;19.27;;;;;;;;;;5034008;28;20413;-68
2022/03/03 05:15:27;;;;;;;37.63;20.53;;;;;;;;;;5034422;28;20108;-68
2022/03/03 05:17:53;;;;;;;33.87;19.87;;;;;;;;;;5034446;28;20036;-68
2022/03/03 05:20:19;;;;;;;33.63;19.53;;;;;;;;;;5034558;28;20104;-68
2022/03/03 05:22:45;;;;;;;36.23;20.07;;;;;;;;;;5034585;28;20030;-69
2022/03/03 05:25:12;;;;;;;37.43;19.57;;;;;;;;;;5033646;28;20120;-68
2022/03/03 05:27:39;;;;;;;40.00;19.83;;;;;;;;;;5033239;28;20037;-69
2022/03/03 05:30:06;;;;;;;43.13;19.53;;;;;;;;;;5034248;28;20486;-69
2022/03/03 05:32:32;;;;;;;36.03;19.77;;;;;;;;;;5034112;28;20041;-69
2022/03/03 05:34:58;;;;;;;38.50;21.87;;;;;;;;;;5033724;28;20041;-69
2022/03/03 05:37:25;;;;;;;43.03;22.73;;;;;;;;;;5033981;28;20084;-69
2022/03/03 05:39:52;;;;;;;38.43;20.33;;;;;;;;;;5033849;28;22453;-69
2022/03/03 05:42:19;;;;;;;37.60;20.77;;;;;;;;;;5033587;28;20033;-69
2022/03/03 05:44:46;;;;;;;32.43;19.27;;;;;;;;;;5033492;28;20372;-69
2022/03/03 05:47:12;;;;;;;36.37;20.73;;;;;;;;;;5033468;28;20091;-69
2022/03/03 05:49:40;;;;;;;37.27;19.50;;;;;;;;;;5033884;28;20045;-69
2022/03/03 05:52:07;;;;;;;35.03;20.03;;;;;;;;;;5033555;28;20037;-68
2022/03/03 05:54:33;;;;;;;34.67;19.03;;;;;;;;;;5033713;28;20033;-69
2022/03/03 05:57:01;;;;;;;35.60;18.77;;;;;;;;;;5033682;28;20536;-69
2022/03/03 05:59:29;;;;;;;29.67;17.33;;;;;;;;;;5033196;28;20060;-69
2022/03/03 06:01:55;;;;;;;34.20;17.73;;;;;;;;;;5033286;28;20486;-69
2022/03/03 06:04:25;;;;;;;30.87;17.33;;;;;;;;;;5033488;28;20034;-68
2022/03/03 06:06:57;;;;;;;31.83;16.50;;;;;;;;;;5033297;28;20037;-69
2022/03/03 06:09:25;;;;;;;28.37;17.50;;;;;;;;;;5033242;28;20405;-68
2022/03/03 06:12:10;;;;;;;31.07;16.97;;;;;;;;;;5033173;28;20546;-69
2022/03/03 06:14:38;;;;;;;34.00;16.93;;;;;;;;;;5033294;28;20037;-69
2022/03/03 06:17:04;;;;;;;42.77;18.27;;;;;;;;;;5033211;28;20034;-69
2022/03/03 06:19:31;;;;;;;38.10;17.30;;;;;;;;;;5032956;28;20084;-68
2022/03/03 06:21:58;;;;;;;27.17;17.37;;;;;;;;;;5033034;28;20375;-69
2022/03/03 06:24:24;;;;;;;30.43;17.47;;;;;;;;;;5033126;28;20481;-69
2022/03/03 06:26:50;;;;;;;47.27;19.03;;;;;;;;;;5033283;28;20549;-68
2022/03/03 06:29:16;;;;;;;27.97;17.17;;;;;;;;;;5033131;28;20026;-69
2022/03/03 06:31:42;;;;;;;35.07;18.87;;;;;;;;;;5033813;28;20497;-69
2022/03/03 06:34:08;;;;;;;31.93;17.73;;;;;;;;;;5033198;28;20508;-68
2022/03/03 06:36:34;;;;;;;29.57;16.93;;;;;;;;;;5032963;28;20033;-69
2022/03/03 06:39:00;;;;;;;32.10;17.87;;;;;;;;;;5032829;28;20038;-69
2022/03/03 06:41:28;;;;;;;36.67;18.63;;;;;;;;;;5032999;28;20104;-82
2022/03/03 06:43:54;;;;;;;30.33;17.13;;;;;;;;;;5032811;28;20045;-69
2022/03/03 06:46:21;;;;;;;41.60;18.77;;;;;;;;;;5032983;28;20033;-69
2022/03/03 06:48:47;;;;;;;26.50;16.10;;;;;;;;;;5033140;28;20033;-69
2022/03/03 06:51:17;;;;;;;28.17;15.47;;;;;;;;;;5033054;28;20382;-69
2022/03/03 06:53:44;;;;;;;31.43;16.93;;;;;;;;;;5032999;28;20037;-69
2022/03/03 06:56:12;;;;;;;27.13;15.73;;;;;;;;;;5032497;28;20038;-69
2022/03/03 06:58:39;;;;;;;36.37;16.60;;;;;;;;;;5032719;28;20036;-68
2022/03/03 07:01:07;;;;;;;32.53;15.60;;;;;;;;;;5032285;28;20041;-68
2022/03/03 07:03:33;;;;;;;24.23;15.33;;;;;;;;;;5032804;28;20128;-69
2022/03/03 07:06:00;;;;;;;29.97;16.87;;;;;;;;;;5032629;28;20041;-68
2022/03/03 07:08:26;;;;;;;38.63;18.07;;;;;;;;;;5032179;28;20490;-68
2022/03/03 07:10:52;;;;;;;41.63;17.57;;;;;;;;;;5031597;28;20065;-75
2022/03/03 07:13:18;;;;;;;35.37;17.30;;;;;;;;;;5029373;28;20045;-70
2022/03/03 07:16:04;;;;;;;39.93;17.57;;;;;;;;;;5029817;28;20505;-73
2022/03/03 07:18:35;;;;;;;29.23;16.77;;;;;;;;;;5030909;28;20538;-67
2022/03/03 07:21:06;;;;;;;30.10;16.13;;;;;;;;;;5032656;28;20427;-64
2022/03/03 07:23:37;;;;;;;31.10;16.90;;;;;;;;;;5032363;28;20034;-66
2022/03/03 07:26:05;;;;;;;36.93;16.77;;;;;;;;;;5032111;28;20489;-64
2022/03/03 07:28:32;;;;;;;35.07;19.23;;;;;;;;;;5032091;28;20688;-64
2022/03/03 07:31:02;;;;;;;44.77;17.47;;;;;;;;;;5031934;28;20470;-82
2022/03/03 07:33:43;;;;;;;30.67;17.30;;;;;;;;;;5031668;28;20038;-65
2022/03/03 07:36:12;;;;;;;47.00;17.53;;;;;;;;;;5030335;28;20121;-64
2022/03/03 07:38:39;;;;;;;38.40;16.40;;;;;;;;;;5029859;28;20029;-64
2022/03/03 07:41:07;;;;;;;33.77;16.03;;;;;;;;;;5030115;28;20075;-66
2022/03/03 07:43:33;;;;;;;36.77;16.43;;;;;;;;;;5032085;28;20069;-63
2022/03/03 07:46:00;;;;;;;31.83;16.57;;;;;;;;;;5031981;28;20083;-75
2022/03/03 07:48:26;;;;;;;34.30;16.50;;;;;;;;;;5031862;28;20033;-64
2022/03/03 07:50:52;;;;;;;30.87;16.63;;;;;;;;;;5034487;28;20539;-64
2022/03/03 07:53:19;;;;;;;39.63;16.17;;;;;;;;;;5035201;28;20045;-64
2022/03/03 07:55:46;;;;;;;30.10;14.07;;;;;;;;;;5035475;28;20386;-81
2022/03/03 07:58:19;;;;;;;33.63;13.23;;;;;;;;;;5034852;28;20037;-65
2022/03/03 08:00:50;;;;;;;22.43;12.33;;;;;;;;;;5035179;28;20034;-64
2022/03/03 08:03:21;;;;;;;21.13;12.17;;;;;;;;;;5035173;28;20041;-64
2022/03/03 08:05:48;;;;;;;25.07;13.53;;;;;;;;;;5035382;28;20436;-64
2022/03/03 08:08:16;;;;;;;29.63;13.33;;;;;;;;;;5035186;28;20049;-64
2022/03/03 08:10:43;;;;;;;19.83;13.20;;;;;;;;;;5034818;28;20030;-64
2022/03/03 08:13:13;;;;;;;31.03;13.20;;;;;;;;;;5035174;28;20056;-64
2022/03/03 08:15:40;;;;;;;34.70;13.50;;;;;;;;;;5035045;28;20116;-64
2022/03/03 08:18:07;;;;;;;25.87;13.53;;;;;;;;;;5035136;28;20042;-77
2022/03/03 08:20:34;;;;;;;21.27;14.03;;;;;;;;;;5034270;28;20126;-64
2022/03/03 08:23:00;;;;;;;23.07;13.17;;;;;;;;;;5033625;28;20478;-78
2022/03/03 08:25:27;;;;;;;23.00;13.73;;;;;;;;;;5035149;28;20164;-78
2022/03/03 08:27:54;;;;;;;25.40;12.43;;;;;;;;;;5035000;28;20041;-64
2022/03/03 08:30:21;;;;;;;20.73;12.13;;;;;;;;;;5034696;28;20067;-76
2022/03/03 08:32:55;;;;;;;19.57;12.53;;;;;;;;;;5034839;28;20030;-65
2022/03/03 08:35:23;;;;;;;18.20;11.93;;;;;;;;;;5035036;28;20069;-67
2022/03/03 08:37:58;;;;;;;21.37;12.23;;;;;;;;;;5034682;28;20180;-77
2022/03/03 08:40:25;;;;;;;28.90;12.73;;;;;;;;;;5033964;28;20048;-67
2022/03/03 08:42:56;;;;;;;19.37;12.00;;;;;;;;;;5033848;28;20061;-63
2022/03/03 08:45:23;;;;;;;18.77;10.23;;;;;;;;;;5034804;28;20053;-64
2022/03/03 08:48:01;;;;;;;15.63;9.93;;;;;;;;;;5037037;28;20034;-64
2022/03/03 08:50:28;;;;;;;13.77;9.07;;;;;;;;;;5038217;28;20478;-63
2022/03/03 08:52:58;;;;;;;15.17;9.37;;;;;;;;;;5035440;28;20040;-64
2022/03/03 08:55:25;;;;;;;19.90;9.40;;;;;;;;;;5034821;28;20057;-63
2022/03/03 08:57:51;;;;;;;17.00;9.67;;;;;;;;;;5034668;28;20140;-63
2022/03/03 09:00:17;;;;;;;17.13;8.07;;;;;;;;;;5034410;28;20506;-77
2022/03/03 09:02:44;;;;;;;19.50;8.90;;;;;;;;;;5034360;28;20087;-76
2022/03/03 09:05:10;;;;;;;15.47;8.17;;;;;;;;;;5034587;28;20095;-63
2022/03/03 09:07:37;;;;;;;13.43;9.00;;;;;;;;;;5034427;28;20444;-63
2022/03/03 09:10:04;;;;;;;18.60;9.00;;;;;;;;;;5033986;28;20045;-64
2022/03/03 09:12:30;;;;;;;14.87;9.10;;;;;;;;;;5033644;28;20494;-70
2022/03/03 09:14:56;;;;;;;13.60;7.60;;;;;;;;;;5033977;28;20037;-77
2022/03/03 09:17:22;;;;;;;14.33;7.83;;;;;;;;;;5034401;28;20390;-75
2022/03/03 09:19:48;;;;;;;10.53;7.50;;;;;;;;;;5033852;28;20060;-77
2022/03/03 09:22:14;;;;;;;12.37;6.90;;;;;;;;;;5034058;28;20216;-64
2022/03/03 09:24:40;;;;;;;16.40;7.40;;;;;;;;;;5034133;28;20036;-77
2022/03/03 09:27:06;;;;;;;11.47;7.20;;;;;;;;;;5033728;28;20375;-64
2022/03/03 09:29:36;;;;;;;10.53;6.77;;;;;;;;;;5033715;28;20049;-64
2022/03/03 09:32:03;;;;;;;10.10;5.57;;;;;;;;;;5033726;28;20087;-65
2022/03/03 09:34:29;;;;;;;7.83;5.30;;;;;;;;;;5033854;28;20037;-77
2022/03/03 09:36:58;;;;;;;9.60;5.90;;;;;;;;;;5033596;28;20033;-70
2022/03/03 09:39:25;;;;;;;8.97;5.37;;;;;;;;;;5033814;28;20033;-77
2022/03/03 09:41:52;;;;;;;13.63;5.60;;;;;;;;;;5033641;28;20037;-66
2022/03/03 09:44:22;;;;;;;8.63;5.33;;;;;;;;;;5033564;28;20030;-63
2022/03/03 09:46:48;;;;;;;11.33;6.47;;;;;;;;;;5033166;28;20116;-63
2022/03/03 09:49:15;;;;;;;15.63;6.93;;;;;;;;;;5033816;28;20041;-64
2022/03/03 09:51:41;;;;;;;11.83;7.17;;;;;;;;;;5033738;28;20033;-63
2022/03/03 09:54:07;;;;;;;16.77;7.00;;;;;;;;;;5033652;28;20478;-64
2022/03/03 09:56:33;;;;;;;15.93;7.20;;;;;;;;;;5033461;28;20037;-64
2022/03/03 09:58:59;;;;;;;10.37;7.90;;;;;;;;;;5033594;28;20061;-63
2022/03/03 10:01:28;;;;;;;16.47;8.33;;;;;;;;;;5033483;28;20050;-64
2022/03/03 10:03:57;;;;;;;13.30;7.70;;;;;;;;;;5033379;28;20034;-64
2022/03/03 10:06:23;;;;;;;12.00;8.03;;;;;;;;;;5033217;28;20045;-63
2022/03/03 10:08:54;;;;;;;13.23;8.23;;;;;;;;;;5033171;28;20041;-63
2022/03/03 10:11:20;;;;;;;13.37;7.47;;;;;;;;;;5033155;28;20033;-63
2022/03/03 10:13:50;;;;;;;15.43;7.60;;;;;;;;;;5032772;28;20501;-63
2022/03/03 10:16:24;;;;;;;12.47;8.07;;;;;;;;;;5033514;28;20517;-63
2022/03/03 10:19:01;;;;;;;12.27;7.60;;;;;;;;;;5032742;28;20049;-63
2022/03/03 10:21:28;;;;;;;12.80;7.63;;;;;;;;;;5032071;28;20124;-63
2022/03/03 10:23:54;;;;;;;14.67;8.00;;;;;;;;;;5032107;28;20034;-64
2022/03/03 10:26:20;;;;;;;13.23;7.70;;;;;;;;;;5032306;28;20556;-63
2022/03/03 10:28:49;;;;;;;11.40;7.70;;;;;;;;;;5032711;28;20092;-64
2022/03/03 10:31:20;;;;;;;11.30;7.57;;;;;;;;;;5032278;28;20120;-63
2022/03/03 10:33:47;;;;;;;12.93;7.73;;;;;;;;;;5032810;28;20034;-64
2022/03/03 10:36:21;;;;;;;13.87;7.53;;;;;;;;;;5032754;28;20449;-63
2022/03/03 10:38:55;;;;;;;10.87;8.10;;;;;;;;;;5032872;28;20033;-63
2022/03/03 10:41:26;;;;;;;11.20;8.23;;;;;;;;;;5031325;28;20164;-63
2022/03/03 10:43:52;;;;;;;12.03;7.17;;;;;;;;;;5032695;28;20131;-63
2022/03/03 10:46:18;;;;;;;12.57;8.90;;;;;;;;;;5031767;28;20034;-63
2022/03/03 10:48:45;;;;;;;12.77;7.70;;;;;;;;;;5032367;28;20065;-62
2022/03/03 10:51:14;;;;;;;11.63;7.30;;;;;;;;;;5032234;28;20037;-63
2022/03/03 10:53:42;;;;;;;9.43;6.83;;;;;;;;;;5032029;28;20033;-64
2022/03/03 10:56:09;;;;;;;14.97;7.67;;;;;;;;;;5032164;28;20103;-76
2022/03/03 10:58:44;;;;;;;13.17;7.13;;;;;;;;;;5032072;28;20113;-77
2022/03/03 11:01:10;;;;;;;10.60;7.17;;;;;;;;;;5031399;28;20490;-77
2022/03/03 11:03:36;;;;;;;9.07;6.63;;;;;;;;;;5032444;28;20037;-77
2022/03/03 11:06:06;;;;;;;11.67;7.43;;;;;;;;;;5032537;28;20450;-65
2022/03/03 11:08:32;;;;;;;10.20;6.70;;;;;;;;;;5018223;28;20048;-64
2022/03/03 11:10:58;;;;;;;10.07;7.30;;;;;;;;;;5052336;28;20041;-77
2022/03/03 11:13:24;;;;;;;12.70;7.70;;;;;;;;;;5052194;28;20048;-77
2022/03/03 11:15:52;;;;;;;11.20;7.83;;;;;;;;;;5052345;28;20033;-64
2022/03/03 11:18:18;;;;;;;11.60;8.23;;;;;;;;;;5052101;28;20041;-70
2022/03/03 11:20:48;;;;;;;12.30;7.57;;;;;;;;;;5052051;28;20052;-76
2022/03/03 11:23:14;;;;;;;10.43;7.73;;;;;;;;;;5051761;28;20044;-73
2022/03/03 11:25:41;;;;;;;14.73;8.05;;;;;;;;;;5054933;28;20219;-74
2022/03/03 11:28:08;;;;;;;11.60;8.05;;;;;;;;;;5056229;28;20407;-75
2022/03/03 11:30:35;;;;;;;8.77;7.13;;;;;;;;;;5055880;28;20040;-70
2022/03/03 11:33:22;;;;;;;11.40;7.63;;;;;;;;;;5056180;28;20041;-65
2022/03/03 11:35:52;;;;;;;13.95;7.95;;;;;;;;;;5055853;28;20573;-65
2022/03/03 11:38:20;;;;;;;12.90;8.10;;;;;;;;;;5055874;28;20063;-62
2022/03/03 11:40:53;;;;;;;11.35;7.80;;;;;;;;;;5055576;28;20041;-76
2022/03/03 11:43:19;;;;;;;10.23;8.10;;;;;;;;;;5055559;28;20542;-62
2022/03/03 11:45:49;;;;;;;10.45;8.10;;;;;;;;;;5055833;28;20029;-62
2022/03/03 11:48:16;;;;;;;10.10;8.10;;;;;;;;;;5055299;28;20040;-68
2022/03/03 11:50:42;;;;;;;12.50;9.23;;;;;;;;;;5055246;28;20047;-62
2022/03/03 11:53:08;;;;;;;14.38;8.65;;;;;;;;;;5055908;28;20032;-62
2022/03/03 11:55:34;;;;;;;12.48;9.35;;;;;;;;;;5055764;28;20040;-62
2022/03/03 11:58:04;;;;;;;12.65;9.30;;;;;;;;;;5055618;28;20037;-62
2022/03/03 12:00:31;;;;;;;17.23;10.52;;;;;;;;;;5055762;28;20037;-62
2022/03/03 12:02:59;;;;;;;15.02;9.75;;;;;;;;;;5055791;28;20037;-62
2022/03/03 12:05:29;;;;;;;14.73;10.45;;;;;;;;;;5055849;28;20040;-62
2022/03/03 12:08:01;;;;;;;15.52;9.63;;;;;;;;;;5055773;28;20029;-62
2022/03/03 12:10:27;;;;;;;;;;;;;;;;;;5056209;28;20029;-62
2022/03/03 12:13:13;;;;;;;20.30;11.35;;;;;;;;;;5055585;28;20321;-62
2022/03/03 12:15:40;;;;;;;16.42;10.98;;;;;;;;;;5055474;28;20041;-62
2022/03/03 12:18:08;;;;;;;13.95;11.20;;;;;;;;;;5055730;28;20115;-62
2022/03/03 12:20:37;;;;;;;16.10;11.18;;;;;;;;;;5054992;28;20041;-62
2022/03/03 12:23:03;;;;;;;18.88;12.40;;;;;;;;;;5053659;28;20037;-62
2022/03/03 12:25:47;;;;;;;15.77;11.32;;;;;;;;;;5052694;28;20555;-62
2022/03/03 12:28:17;;;;;;;19.98;12.52;;;;;;;;;;5052410;28;20496;-62
2022/03/03 12:30:44;;;;;;;17.25;12.52;;;;;;;;;;5054753;28;20032;-62
2022/03/03 12:33:19;;;;;;;17.50;12.80;;;;;;;;;;5055114;28;20481;-62
2022/03/03 12:35:47;;;;;;;16.80;12.52;;;;;;;;;;5054254;28;20044;-75
2022/03/03 12:38:13;;;;;;;17.83;13.07;;;;;;;;;;5054700;28;20087;-62
2022/03/03 12:40:39;;;;;;;17.25;13.52;;;;;;;;;;5054643;28;20045;-62
2022/03/03 12:43:11;;;;;;;21.27;14.27;;;;;;;;;;5054732;28;20485;-62
2022/03/03 12:45:38;;;;;;;22.88;14.05;;;;;;;;;;5054807;28;20041;-62
2022/03/03 12:48:05;;;;;;;19.70;14.43;;;;;;;;;;5054815;28;20112;-62
2022/03/03 12:50:33;;;;;;;22.80;15.25;;;;;;;;;;5054780;28;20033;-63
2022/03/03 12:53:02;;;;;;;22.02;15.73;;;;;;;;;;5054485;28;20025;-62
2022/03/03 12:55:35;;;;;;;21.05;14.70;;;;;;;;;;5054545;28;20473;-62
2022/03/03 12:58:03;;;;;;;25.83;14.65;;;;;;;;;;5054878;28;20253;-62
2022/03/03 13:00:31;;;;;;;23.30;15.48;;;;;;;;;;5054411;28;20119;-62
2022/03/03 13:02:58;;;;;;;19.48;16.52;;;;;;;;;;5054458;28;20052;-62
2022/03/03 13:05:45;;;;;;;21.52;15.55;;;;;;;;;;5054438;28;20432;-74
2022/03/03 13:08:22;;;;;;;20.88;16.02;;;;;;;;;;5054184;28;20052;-63
2022/03/03 13:10:48;;;;;;;27.67;17.42;;;;;;;;;;5054023;28;20455;-62
2022/03/03 13:13:14;;;;;;;22.52;16.38;;;;;;;;;;5054383;28;20091;-62
2022/03/03 13:15:43;;;;;;;23.27;17.70;;;;;;;;;;5054035;28;20048;-62
2022/03/03 13:18:11;;;;;;;23.95;16.83;;;;;;;;;;5053960;28;20478;-62
2022/03/03 13:20:38;;;;;;;21.35;16.50;;;;;;;;;;5053999;28;20049;-62
2022/03/03 13:23:05;;;;;;;23.40;16.60;;;;;;;;;;5053972;28;20375;-62
2022/03/03 13:25:32;;;;;;;23.85;16.50;;;;;;;;;;5054011;28;20394;-63
2022/03/03 13:27:58;;;;;;;22.10;16.83;;;;;;;;;;5054140;28;20033;-62
2022/03/03 13:30:24;;;;;;;19.45;15.45;;;;;;;;;;5053813;28;20079;-62
2022/03/03 13:32:51;;;;;;;20.70;15.63;;;;;;;;;;5054056;28;20036;-62
2022/03/03 13:35:18;;;;;;;19.65;15.77;;;;;;;;;;5051299;28;20393;-62
2022/03/03 13:37:45;;;;;;;24.02;15.88;;;;;;;;;;5051300;28;20110;-62
2022/03/03 13:40:31;;;;;;;25.65;15.68;;;;;;;;;;5053105;28;20033;-62
2022/03/03 13:42:59;;;;;;;22.90;16.25;;;;;;;;;;5053672;28;20497;-62
2022/03/03 13:45:36;;;;;;;22.85;16.42;;;;;;;;;;5053843;28;20033;-62
2022/03/03 13:48:06;;;;;;;21.38;16.73;;;;;;;;;;5052779;28;20049;-62
2022/03/03 13:50:34;;;;;;;22.92;17.75;;;;;;;;;;5052008;28;20111;-68
2022/03/03 13:53:18;;;;;;;20.15;16.05;;;;;;;;;;5053202;28;20049;-70
2022/03/03 13:55:47;;;;;;;21.17;15.82;;;;;;;;;;5053214;28;20476;-75
2022/03/03 13:58:26;;;;;;;26.38;16.52;;;;;;;;;;5053324;28;20486;-77
2022/03/03 14:00:52;;;;;;;23.23;16.83;;;;;;;;;;5053330;28;20048;-73
2022/03/03 14:03:18;;;;;;;19.42;16.40;;;;;;;;;;5053321;28;20087;-76
2022/03/03 14:05:51;;;;;;;24.55;17.45;;;;;;;;;;5054990;28;20031;-63
2022/03/03 14:08:18;;;;;;;21.42;16.85;;;;;;;;;;5055010;28;20039;-75
2022/03/03 14:10:50;;;;;;;22.70;16.23;;;;;;;;;;5053726;28;20536;-62
2022/03/03 14:13:17;;;;;;;20.35;16.48;;;;;;;;;;5053260;28;20139;-62
2022/03/03 14:15:46;;;;;;;21.92;16.67;;;;;;;;;;5052994;28;20043;-62
2022/03/03 14:18:12;;;;;;;21.13;17.17;;;;;;;;;;5051666;28;20523;-62
2022/03/03 14:20:38;;;;;;;25.08;17.23;;;;;;;;;;5052094;28;20525;-62
2022/03/03 14:23:04;;;;;;;21.23;16.42;;;;;;;;;;5053020;28;20033;-62
2022/03/03 14:25:30;;;;;;;23.25;16.70;;;;;;;;;;5052800;28;20119;-62
2022/03/03 14:27:58;;;;;;;22.52;17.52;;;;;;;;;;5052769;28;20505;-62
2022/03/03 14:30:24;;;;;;;25.35;17.77;;;;;;;;;;5052914;28;20029;-62